createdAt,value
2019-01-31T00:24:06.711Z,17.27
2019-01-31T00:26:43.731Z,13.55
2019-01-31T00:29:29.973Z,21.57
2019-01-31T00:32:03.894Z,20.17
2019-01-31T00:34:35.356Z,21.27
2019-01-31T00:37:18.874Z,32.78
2019-01-31T00:39:52.783Z,18.62
2019-01-31T00:42:33.372Z,19.65
2019-01-31T00:45:22.760Z,16.32
2019-01-31T00:48:06.061Z,13.75
2019-01-31T00:50:40.077Z,21.02
2019-01-31T00:53:23.546Z,12.15
2019-01-31T00:56:11.830Z,14.50
2019-01-31T00:58:46.061Z,19.65
2019-01-31T01:01:29.402Z,24.10
2019-01-31T01:04:03.632Z,27.58
2019-01-31T01:06:57.404Z,20.23
2019-01-31T01:09:51.435Z,15.60
2019-01-31T01:12:28.850Z,20.00
2019-01-31T01:15:00.533Z,23.83
2019-01-31T01:17:37.870Z,18.05
2019-01-31T01:20:24.621Z,23.75
2019-01-31T01:23:17.552Z,23.05
2019-01-31T01:26:10.253Z,25.08
2019-01-31T01:28:53.521Z,32.45
2019-01-31T01:31:49.127Z,24.00
2019-01-31T01:34:23.154Z,22.45
2019-01-31T01:36:57.738Z,22.87
2019-01-31T01:39:29.200Z,27.48
2019-01-31T01:42:05.940Z,22.98
2019-01-31T01:44:56.488Z,23.30
2019-01-31T01:47:30.928Z,26.68
2019-01-31T01:50:02.402Z,20.17
2019-01-31T01:52:48.977Z,21.07
2019-01-31T01:55:23.503Z,22.65
2019-01-31T01:58:28.845Z,17.85
2019-01-31T02:01:15.322Z,23.92
2019-01-31T02:04:07.910Z,24.63
2019-01-31T02:06:48.869Z,27.13
2019-01-31T02:09:29.973Z,26.42
2019-01-31T02:12:11.230Z,19.67
2019-01-31T02:15:01.854Z,30.65
2019-01-31T02:17:48.282Z,20.32
2019-01-31T02:20:22.474Z,19.00
2019-01-31T02:23:06.279Z,19.65
2019-01-31T02:25:46.404Z,47.35
2019-01-31T02:28:30.013Z,25.02
2019-01-31T02:31:19.401Z,25.23
2019-01-31T02:33:56.687Z,20.37
2019-01-31T02:36:46.005Z,17.48
2019-01-31T02:39:43.164Z,16.45
2019-01-31T02:42:09.176Z,16.10
2019-01-31T02:45:06.359Z,22.30
2019-01-31T02:47:46.945Z,16.77
2019-01-31T02:50:42.642Z,17.27
2019-01-31T02:53:28.997Z,13.90
2019-01-31T02:56:09.213Z,12.25
2019-01-31T02:58:43.344Z,17.27
2019-01-31T03:01:26.744Z,18.48
2019-01-31T03:04:10.243Z,17.57
2019-01-31T03:06:44.578Z,15.95
2019-01-31T03:09:54.324Z,16.97
2019-01-31T03:12:28.214Z,10.43
2019-01-31T03:14:59.653Z,14.28
2019-01-31T03:18:04.358Z,13.70
2019-01-31T03:20:48.044Z,20.05
2019-01-31T03:23:45.302Z,13.48
2019-01-31T03:26:25.601Z,15.20
2019-01-31T03:29:12.252Z,13.90
2019-01-31T03:31:55.918Z,16.20
2019-01-31T03:34:36.106Z,10.43
2019-01-31T03:37:19.590Z,14.00
2019-01-31T03:39:51.046Z,13.10
2019-01-31T03:42:37.395Z,18.67
2019-01-31T03:45:31.228Z,25.35
2019-01-31T03:48:11.800Z,21.42
2019-01-31T03:51:00.332Z,15.20
2019-01-31T03:53:34.755Z,14.60
2019-01-31T03:56:11.980Z,13.20
2019-01-31T03:58:43.426Z,13.15
2019-01-31T04:01:30.100Z,12.00
2019-01-31T04:04:01.568Z,26.37
2019-01-31T04:06:30.036Z,18.70
2019-01-31T04:08:58.441Z,11.35
2019-01-31T04:11:26.839Z,15.30
2019-01-31T04:13:55.573Z,10.60
2019-01-31T04:16:23.966Z,13.72
2019-01-31T04:18:52.636Z,15.72
2019-01-31T04:21:21.267Z,11.88
2019-01-31T04:23:50.012Z,15.63
2019-01-31T04:26:18.698Z,11.12
2019-01-31T04:28:47.089Z,16.42
2019-01-31T04:31:15.490Z,10.98
2019-01-31T04:33:44.157Z,14.05
2019-01-31T04:36:12.825Z,11.63
2019-01-31T04:38:41.219Z,13.65
2019-01-31T04:41:09.901Z,12.53
2019-01-31T04:43:38.282Z,13.65
2019-01-31T04:46:06.672Z,10.78
2019-01-31T04:48:35.201Z,13.98
2019-01-31T04:51:03.813Z,9.05
2019-01-31T04:53:32.501Z,11.60
2019-01-31T04:56:00.889Z,12.20
2019-01-31T04:58:29.283Z,19.65
2019-01-31T05:00:57.831Z,11.70
2019-01-31T05:03:26.476Z,14.55
2019-01-31T05:05:54.867Z,17.45
2019-01-31T05:08:23.358Z,16.75
2019-01-31T05:10:51.733Z,17.17
2019-01-31T05:13:20.367Z,15.55
2019-01-31T05:15:48.766Z,15.65
2019-01-31T05:18:17.154Z,11.75
2019-01-31T05:20:45.559Z,17.52
2019-01-31T05:23:13.953Z,12.50
2019-01-31T05:25:42.358Z,13.40
2019-01-31T05:28:10.748Z,14.45
2019-01-31T05:30:39.227Z,13.60
2019-01-31T05:33:07.621Z,12.98
2019-01-31T05:35:36.266Z,17.15
2019-01-31T05:38:04.676Z,14.83
2019-01-31T05:40:33.075Z,18.52
2019-01-31T05:43:05.935Z,15.30
2019-01-31T05:45:34.968Z,15.53
2019-01-31T05:48:03.446Z,18.30
2019-01-31T05:50:31.836Z,16.25
2019-01-31T05:53:00.227Z,17.48
2019-01-31T05:55:28.630Z,20.55
2019-01-31T05:57:57.317Z,12.37
2019-01-31T06:00:30.412Z,21.00
2019-01-31T06:02:58.802Z,21.45
2019-01-31T06:05:27.212Z,27.22
2019-01-31T06:07:55.598Z,26.40
2019-01-31T06:10:24.009Z,20.32
2019-01-31T06:12:52.397Z,22.48
2019-01-31T06:15:20.854Z,16.85
2019-01-31T06:17:50.154Z,14.55
2019-01-31T06:20:24.309Z,17.62
2019-01-31T06:22:52.713Z,16.65
2019-01-31T06:25:21.177Z,18.48
2019-01-31T06:27:49.716Z,9.98
2019-01-31T06:30:18.775Z,14.58
2019-01-31T06:32:47.513Z,16.62
2019-01-31T06:35:16.021Z,18.32
2019-01-31T06:37:44.680Z,17.98
2019-01-31T06:40:19.064Z,18.27
2019-01-31T06:42:47.763Z,13.08
2019-01-31T06:45:18.211Z,14.35
2019-01-31T06:47:46.598Z,11.10
2019-01-31T06:50:15.381Z,12.50
2019-01-31T06:52:44.010Z,12.98
2019-01-31T06:55:13.574Z,23.57
2019-01-31T06:57:42.208Z,12.53
2019-01-31T07:00:13.982Z,17.20
2019-01-31T07:02:42.384Z,14.05
2019-01-31T07:05:10.832Z,18.32
2019-01-31T07:07:39.230Z,16.93
2019-01-31T07:10:16.856Z,14.05
2019-01-31T07:12:45.256Z,19.48
2019-01-31T07:15:13.981Z,19.07
2019-01-31T07:17:42.452Z,20.30
2019-01-31T07:20:13.577Z,11.70
2019-01-31T07:22:41.986Z,15.18
2019-01-31T07:25:13.785Z,14.40
2019-01-31T07:27:42.176Z,17.20
2019-01-31T07:30:13.654Z,11.93
2019-01-31T07:32:42.305Z,15.85
2019-01-31T07:35:13.251Z,19.55
2019-01-31T07:37:42.031Z,10.03
2019-01-31T07:40:13.370Z,14.23
2019-01-31T07:42:41.771Z,11.00
2019-01-31T07:45:16.374Z,11.35
2019-01-31T07:47:44.764Z,20.82
2019-01-31T07:50:16.409Z,13.55
2019-01-31T07:52:44.799Z,12.40
2019-01-31T07:55:13.605Z,18.30
2019-01-31T07:57:42.218Z,9.30
2019-01-31T08:00:19.159Z,12.80
2019-01-31T08:02:47.552Z,20.35
2019-01-31T08:05:21.443Z,20.52
2019-01-31T08:07:51.218Z,12.98
2019-01-31T08:10:28.076Z,13.72
2019-01-31T08:12:56.605Z,10.10
2019-01-31T08:15:25.076Z,12.45
2019-01-31T08:17:53.534Z,22.73
2019-01-31T08:20:21.930Z,14.05
2019-01-31T08:22:50.387Z,15.88
2019-01-31T08:25:21.125Z,15.13
2019-01-31T08:27:50.793Z,17.45
2019-01-31T08:30:21.868Z,20.52
2019-01-31T08:32:50.492Z,10.10
2019-01-31T08:35:19.042Z,15.20
2019-01-31T08:37:47.436Z,18.85
2019-01-31T08:40:16.140Z,14.18
2019-01-31T08:42:44.825Z,19.60
2019-01-31T08:45:14.655Z,14.28
2019-01-31T08:47:43.136Z,14.00
2019-01-31T08:50:16.788Z,15.23
2019-01-31T08:52:45.243Z,13.05
2019-01-31T08:55:14.030Z,17.20
2019-01-31T08:57:42.980Z,11.45
2019-01-31T09:00:23.852Z,9.30
2019-01-31T09:02:52.241Z,15.63
2019-01-31T09:05:20.702Z,16.37
2019-01-31T09:07:49.173Z,14.07
2019-01-31T09:10:29.147Z,13.45
2019-01-31T09:12:58.493Z,22.77
2019-01-31T09:15:27.157Z,16.42
2019-01-31T09:17:56.018Z,8.85
2019-01-31T09:20:39.703Z,11.95
2019-01-31T09:23:29.454Z,12.98
2019-01-31T09:26:17.628Z,10.80
2019-01-31T09:28:49.070Z,17.12
2019-01-31T09:31:29.511Z,12.47
2019-01-31T09:34:03.815Z,12.80
2019-01-31T09:36:41.305Z,12.68
2019-01-31T09:39:33.844Z,15.78
2019-01-31T09:42:10.558Z,10.50
2019-01-31T09:45:01.530Z,15.32
2019-01-31T09:47:38.991Z,13.38
2019-01-31T09:50:16.341Z,9.20
2019-01-31T09:53:12.341Z,13.18
2019-01-31T09:56:07.628Z,12.93
2019-01-31T09:58:56.642Z,8.05
2019-01-31T10:01:44.857Z,10.15
2019-01-31T10:04:19.116Z,9.05
2019-01-31T10:07:23.901Z,13.70
2019-01-31T10:10:20.767Z,11.83
2019-01-31T10:13:11.996Z,9.65
2019-01-31T10:15:46.171Z,16.10
2019-01-31T10:18:29.473Z,12.10
2019-01-31T10:21:16.230Z,14.25
2019-01-31T10:24:14.893Z,10.10
2019-01-31T10:26:49.347Z,9.00
2019-01-31T10:29:54.084Z,8.85
2019-01-31T10:32:27.451Z,7.87
2019-01-31T10:35:08.018Z,15.53
2019-01-31T10:37:48.605Z,14.43
2019-01-31T10:40:31.780Z,7.58
2019-01-31T10:43:12.476Z,9.73
2019-01-31T10:45:50.068Z,12.85
2019-01-31T10:48:33.802Z,10.13
2019-01-31T10:51:26.186Z,9.03
2019-01-31T10:54:12.864Z,6.15
2019-01-31T10:56:50.136Z,14.10
2019-01-31T10:59:38.029Z,7.80
2019-01-31T11:02:29.044Z,9.95
2019-01-31T11:05:24.719Z,10.58
2019-01-31T11:08:07.980Z,13.75
2019-01-31T11:10:42.457Z,13.00
2019-01-31T11:13:13.903Z,9.40
2019-01-31T11:15:45.346Z,10.80
2019-01-31T11:18:34.323Z,9.58
2019-01-31T11:21:21.979Z,7.40
2019-01-31T11:23:53.414Z,6.10
2019-01-31T11:26:45.917Z,7.85
2019-01-31T11:29:17.357Z,11.75
2019-01-31T11:31:51.580Z,18.40
2019-01-31T11:34:35.285Z,8.88
2019-01-31T11:37:09.555Z,7.60
2019-01-31T11:39:52.883Z,8.63
2019-01-31T11:42:26.755Z,7.10
2019-01-31T11:45:19.329Z,8.78
2019-01-31T11:48:13.468Z,7.72
2019-01-31T11:50:50.832Z,7.45
2019-01-31T11:53:37.323Z,13.48
2019-01-31T11:56:42.363Z,9.73
2019-01-31T11:59:10.765Z,10.08
2019-01-31T12:01:39.543Z,7.80
2019-01-31T12:04:08.833Z,8.48
2019-01-31T12:06:37.619Z,5.90
2019-01-31T12:09:09.059Z,6.08
2019-01-31T12:11:37.447Z,6.33
2019-01-31T12:14:06.402Z,5.83
2019-01-31T12:16:34.794Z,5.75
2019-01-31T12:19:03.503Z,7.45
2019-01-31T12:21:31.974Z,20.80
2019-01-31T12:24:00.478Z,9.30
2019-01-31T12:26:28.820Z,9.33
2019-01-31T12:28:57.220Z,10.28
2019-01-31T12:31:25.595Z,9.10
2019-01-31T12:33:53.999Z,5.55
2019-01-31T12:36:22.380Z,7.05
2019-01-31T12:38:51.149Z,11.95
2019-01-31T12:41:19.540Z,5.78
2019-01-31T12:43:47.924Z,6.92
2019-01-31T12:46:17.105Z,9.78
2019-01-31T12:48:45.482Z,5.60
2019-01-31T12:51:14.020Z,5.60
2019-01-31T12:53:42.404Z,15.98
2019-01-31T12:56:11.340Z,9.98
2019-01-31T12:58:39.737Z,5.08
2019-01-31T13:01:08.356Z,7.45
2019-01-31T13:03:37.089Z,7.75
2019-01-31T13:06:05.607Z,9.03
2019-01-31T13:08:34.000Z,12.28
2019-01-31T13:11:02.394Z,8.78
2019-01-31T13:13:30.775Z,9.80
2019-01-31T13:15:59.545Z,7.67
2019-01-31T13:18:28.233Z,4.95
2019-01-31T13:20:56.861Z,5.30
2019-01-31T13:23:25.366Z,6.80
2019-01-31T13:25:54.093Z,5.58
2019-01-31T13:28:22.483Z,4.75
2019-01-31T13:30:50.870Z,4.05
2019-01-31T13:33:59.171Z,6.35
2019-01-31T13:36:27.632Z,6.15
2019-01-31T13:38:56.414Z,4.70
2019-01-31T13:41:24.869Z,4.50
2019-01-31T13:43:57.714Z,10.40
2019-01-31T13:46:24.123Z,10.53
2019-01-31T13:48:52.510Z,5.15
2019-01-31T13:51:20.971Z,5.75
2019-01-31T13:53:49.761Z,4.45
2019-01-31T13:56:18.143Z,5.67
2019-01-31T13:58:46.550Z,4.62
2019-01-31T14:01:14.928Z,6.80
2019-01-31T14:03:43.595Z,5.62
2019-01-31T14:06:12.276Z,5.72
2019-01-31T14:08:40.963Z,4.10
2019-01-31T14:11:09.357Z,6.60
2019-01-31T14:13:38.030Z,5.30
2019-01-31T14:16:06.580Z,4.37
2019-01-31T14:18:34.960Z,4.03
2019-01-31T14:21:03.393Z,5.35
2019-01-31T14:23:31.792Z,4.10
2019-01-31T14:26:00.433Z,4.62
2019-01-31T14:28:29.134Z,20.97
2019-01-31T14:30:57.523Z,4.50
2019-01-31T14:36:15.059Z,11.90
2019-01-31T14:38:43.530Z,4.15
2019-01-31T14:41:12.312Z,5.03
2019-01-31T14:43:40.960Z,5.85
2019-01-31T14:46:09.620Z,11.38
2019-01-31T14:48:38.307Z,11.75
2019-01-31T14:51:06.757Z,9.60
2019-01-31T14:53:35.155Z,7.15
2019-01-31T14:56:03.612Z,16.90
2019-01-31T14:58:32.322Z,6.30
2019-01-31T15:01:00.762Z,7.85
2019-01-31T15:03:29.170Z,12.60
2019-01-31T15:05:57.583Z,8.88
2019-01-31T15:08:26.034Z,6.15
2019-01-31T15:10:54.525Z,12.70
2019-01-31T15:13:22.899Z,6.37
2019-01-31T15:15:51.373Z,7.35
2019-01-31T15:18:19.763Z,12.90
2019-01-31T15:20:48.153Z,9.15
2019-01-31T15:23:16.925Z,6.05
2019-01-31T15:25:45.550Z,7.87
2019-01-31T15:28:14.295Z,9.93
2019-01-31T15:30:42.690Z,12.18
2019-01-31T15:33:12.424Z,25.17
2019-01-31T15:35:41.260Z,8.63
2019-01-31T15:38:09.714Z,5.70
2019-01-31T15:40:41.424Z,11.57
2019-01-31T15:43:09.881Z,11.08
2019-01-31T15:45:38.349Z,6.03
2019-01-31T15:48:10.546Z,9.00
2019-01-31T15:50:38.762Z,7.60
2019-01-31T15:53:07.611Z,10.00
2019-01-31T15:55:36.070Z,13.93
2019-01-31T15:58:05.608Z,13.80
2019-01-31T16:00:41.746Z,21.20
2019-01-31T16:03:12.188Z,16.77
2019-01-31T16:05:40.974Z,12.65
2019-01-31T16:08:10.434Z,19.87
2019-01-31T16:10:38.969Z,9.08
2019-01-31T16:13:08.283Z,12.20
2019-01-31T16:15:36.810Z,9.63
2019-01-31T16:18:07.475Z,18.87
2019-01-31T16:20:35.866Z,20.92
2019-01-31T16:23:04.813Z,18.40
2019-01-31T16:25:33.269Z,16.80
2019-01-31T16:28:01.667Z,11.10
2019-01-31T16:30:30.053Z,17.23
2019-01-31T16:32:58.434Z,9.68
2019-01-31T16:35:26.832Z,20.10
2019-01-31T16:37:55.555Z,23.98
2019-01-31T16:40:24.721Z,13.93
2019-01-31T16:42:53.183Z,23.55
2019-01-31T16:45:22.097Z,15.13
2019-01-31T16:47:50.618Z,13.53
2019-01-31T16:50:23.524Z,26.10
2019-01-31T16:52:51.982Z,18.32
2019-01-31T16:55:26.340Z,15.98
2019-01-31T16:57:56.066Z,20.32
2019-01-31T17:00:32.875Z,15.40
2019-01-31T17:03:01.255Z,11.85
2019-01-31T17:05:31.878Z,13.58
2019-01-31T17:08:00.956Z,16.20
2019-01-31T17:10:29.755Z,17.82
2019-01-31T17:12:58.292Z,20.23
2019-01-31T17:15:27.245Z,19.50
2019-01-31T17:17:55.763Z,15.32
2019-01-31T17:20:38.294Z,17.55
2019-01-31T17:23:06.766Z,18.00
2019-01-31T17:25:35.480Z,14.47
2019-01-31T17:28:04.881Z,16.37
2019-01-31T17:30:33.568Z,23.18
2019-01-31T17:33:01.970Z,25.55
2019-01-31T17:35:30.364Z,22.77
2019-01-31T17:37:58.755Z,20.45
2019-01-31T17:40:29.707Z,20.88
2019-01-31T17:42:58.098Z,24.40
2019-01-31T17:45:30.515Z,16.35
2019-01-31T17:47:56.842Z,18.17
2019-01-31T17:50:25.537Z,20.85
2019-01-31T17:52:54.090Z,23.30
2019-01-31T17:55:24.511Z,26.60
2019-01-31T17:57:52.954Z,19.62
2019-01-31T18:00:31.830Z,20.95
2019-01-31T18:03:00.234Z,25.60
2019-01-31T18:05:28.616Z,16.45
2019-01-31T18:07:57.005Z,17.45
2019-01-31T18:10:25.754Z,35.68
2019-01-31T18:12:54.141Z,18.35
2019-01-31T18:15:22.930Z,19.73
2019-01-31T18:17:51.557Z,21.02
2019-01-31T18:20:21.797Z,19.80
2019-01-31T18:22:50.269Z,17.60
2019-01-31T18:25:18.659Z,14.93
2019-01-31T18:27:47.043Z,20.15
2019-01-31T18:30:33.368Z,25.62
2019-01-31T18:33:02.052Z,17.77
2019-01-31T18:35:30.805Z,29.57
2019-01-31T18:37:59.535Z,20.45
2019-01-31T18:40:30.441Z,20.70
2019-01-31T18:42:59.148Z,15.45
2019-01-31T18:45:29.672Z,22.62
2019-01-31T18:47:58.318Z,26.75
2019-01-31T18:50:29.920Z,27.60
2019-01-31T18:52:58.813Z,34.18
2019-01-31T18:55:28.035Z,25.45
2019-01-31T18:57:56.678Z,25.27
2019-01-31T19:00:30.545Z,24.45
2019-01-31T19:02:58.951Z,30.55
2019-01-31T19:05:28.090Z,24.95
2019-01-31T19:07:56.479Z,22.45
2019-01-31T19:10:25.052Z,25.90
2019-01-31T19:12:53.935Z,27.35
2019-01-31T19:15:24.355Z,28.55
2019-01-31T19:17:53.042Z,29.57
2019-01-31T19:20:32.394Z,31.75
2019-01-31T19:23:02.834Z,29.50
2019-01-31T19:25:32.322Z,32.42
2019-01-31T19:28:01.028Z,30.10
2019-01-31T19:30:34.697Z,33.45
2019-01-31T19:33:03.806Z,26.70
2019-01-31T19:35:32.273Z,32.48
2019-01-31T19:38:02.416Z,26.95
2019-01-31T19:40:36.477Z,27.50
2019-01-31T19:43:05.808Z,25.23
2019-01-31T19:45:39.820Z,28.27
2019-01-31T19:48:08.857Z,23.20
2019-01-31T19:50:37.699Z,35.23
2019-01-31T19:53:06.711Z,25.48
2019-01-31T19:55:35.705Z,31.35
2019-01-31T19:58:04.897Z,27.80
2019-01-31T20:00:33.584Z,23.67
2019-01-31T20:03:02.353Z,27.70
2019-01-31T20:05:30.894Z,22.30
2019-01-31T20:08:01.375Z,33.33
2019-01-31T20:10:31.758Z,24.12
2019-01-31T20:13:00.626Z,26.50
2019-01-31T20:15:30.206Z,24.60
2019-01-31T20:17:58.933Z,29.48
2019-01-31T20:20:30.590Z,27.98
2019-01-31T20:22:59.852Z,28.30
2019-01-31T20:25:30.179Z,25.23
2019-01-31T20:27:59.399Z,30.45
2019-01-31T20:30:33.260Z,29.45
2019-01-31T20:33:02.545Z,29.25
2019-01-31T20:35:31.771Z,28.27
2019-01-31T20:38:01.071Z,32.17
2019-01-31T20:40:32.533Z,28.98
2019-01-31T20:43:00.933Z,29.50
2019-01-31T20:45:29.540Z,30.40
2019-01-31T20:47:58.013Z,27.65
2019-01-31T20:51:06.580Z,44.27
2019-01-31T20:53:35.296Z,32.13
2019-01-31T20:56:03.745Z,35.83
2019-01-31T20:58:32.143Z,32.63
2019-01-31T21:01:00.544Z,27.98
2019-01-31T21:03:49.606Z,27.00
2019-01-31T21:06:18.643Z,32.13
2019-01-31T21:08:47.824Z,27.45
2019-01-31T21:11:36.840Z,32.88
2019-01-31T21:14:45.343Z,30.75
2019-01-31T21:17:16.726Z,27.40
2019-01-31T21:22:33.175Z,30.55
2019-01-31T21:25:01.577Z,32.53
2019-01-31T21:27:29.971Z,33.75
2019-01-31T21:29:58.366Z,34.78
2019-01-31T21:32:27.063Z,30.70
2019-01-31T21:34:55.693Z,34.95
2019-01-31T21:37:24.096Z,31.60
2019-01-31T21:39:52.553Z,29.90
2019-01-31T21:42:21.299Z,29.92
2019-01-31T21:44:49.985Z,42.30
2019-01-31T21:47:18.380Z,35.68
2019-01-31T21:49:46.778Z,42.98
2019-01-31T21:52:15.426Z,40.05
2019-01-31T21:54:43.830Z,32.00
2019-01-31T21:57:12.289Z,28.10
2019-01-31T21:59:40.687Z,30.82
2019-01-31T22:02:09.080Z,27.95
2019-01-31T22:04:37.486Z,39.78
2019-01-31T22:07:05.875Z,33.73
2019-01-31T22:09:53.620Z,43.28
2019-01-31T22:12:22.011Z,31.07
2019-01-31T22:14:50.634Z,28.83
2019-01-31T22:17:19.280Z,24.92
2019-01-31T22:19:47.663Z,20.85
2019-01-31T22:22:35.649Z,23.18
2019-01-31T22:25:43.958Z,20.95
2019-01-31T22:28:12.351Z,18.15
2019-01-31T22:30:40.741Z,20.92
2019-01-31T22:33:09.203Z,18.30
2019-01-31T22:35:37.593Z,18.65
2019-01-31T22:38:45.904Z,20.15
2019-01-31T22:41:14.299Z,23.32
2019-01-31T22:43:43.012Z,14.68
2019-01-31T22:46:11.404Z,17.42
2019-01-31T22:48:40.040Z,14.28
2019-01-31T22:51:08.763Z,12.95
2019-01-31T22:53:37.452Z,14.65
2019-01-31T22:56:05.903Z,13.05
2019-01-31T22:58:34.631Z,16.70
2019-01-31T23:01:42.942Z,17.70
2019-01-31T23:04:11.618Z,15.70
2019-01-31T23:06:40.058Z,14.07
2019-01-31T23:09:48.369Z,18.75
2019-01-31T23:12:16.755Z,17.90
2019-01-31T23:14:45.141Z,16.20
2019-01-31T23:17:13.544Z,13.08
2019-01-31T23:19:41.938Z,15.15
2019-01-31T23:22:10.336Z,16.02
2019-01-31T23:24:38.992Z,16.45
2019-01-31T23:27:07.693Z,15.53
2019-01-31T23:29:36.070Z,12.73
2019-01-31T23:32:44.639Z,18.45
2019-01-31T23:35:13.103Z,15.13
2019-01-31T23:37:41.748Z,21.68
2019-01-31T23:40:50.065Z,14.45
2019-01-31T23:43:18.742Z,20.32
2019-01-31T23:45:47.135Z,17.35
2019-01-31T23:48:15.528Z,19.40
2019-01-31T23:50:43.931Z,23.27
2019-01-31T23:53:12.322Z,19.27
2019-01-31T23:55:40.800Z,19.85
2019-01-31T23:58:09.465Z,18.55
